Mill Rose Farm Restricted Landing Area

Jump to: basic info | weather | runways | comments

Related pages: nearby airports | nearby navaids | notams | map

Basic information (top)

Codes: IL68
Location: lon 42.077202, lat -88.159798, elev 850 ft / 259 m msl
Status: small_airport

Weather (top)

Current conditions for Dupage Airport 11nm (20km) SSW (rec'd 2014/10/31 05:52Z):

KDPA 310552Z 29008KT 10SM OVC043 08/03 A3003 RMK AO2 RAB13E45 SLP172 P0000 60000 T00780028 10089 20067 401171006 58007

Airport forecast for Dupage Airport 11nm (20km) SSW (rec'd 2014/10/31 06:48Z):

TAF KDPA 310546Z 3106/0106 30011G17KT P6SM -SHRA SCT025 OVC035 
     FM310800 32016G26KT P6SM -SHRA SCT010 OVC025 
     FM311200 34023G32KT 6SM -SHSN BKN020 OVC035 
     FM311500 36026G40KT P6SM SCT035 
     FM312300 36020G30KT P6SM FEW035 
     FM010200 35015G24KT P6SM SCT035

Runways (top)

N/S: 2,500 x 100 ft (762 x 30 m) — grass — lighted

Latest comments (top)

No comments yet for Mill Rose Farm Restricted Landing Area

More... (top)

See also NOTAMs and nearby airports and navaids, or visit the Mill Rose Farm Restricted Landing Area page at the main OurAirports website..